Time;durP1;ratioP1;P1;durP2;ratioP2;P2;SDS_P1;SDS_P2;PMS_P1;PMS_P2;Temp;Humidity;BMP_temperature;BMP_pressure;BME280_temperature;BME280_humidity;BME280_pressure;Samples;Min_cycle;Max_cycle;Signal;HPM_P1;HPM_P2
2022/11/23 00:00:26;;;;;;;41.53;19.43;;;1.30;99.90;;;;;;5041041;28;20195;-66
2022/11/23 00:02:58;;;;;;;33.37;17.90;;;1.40;99.90;;;;;;5043687;28;20604;-66
2022/11/23 00:05:25;;;;;;;37.03;19.23;;;1.40;99.90;;;;;;5043808;28;20425;-66
2022/11/23 00:07:50;;;;;;;32.53;18.17;;;1.40;99.90;;;;;;5043597;28;20409;-67
2022/11/23 00:10:17;;;;;;;45.80;19.13;;;1.40;99.90;;;;;;5045592;28;20545;-66
2022/11/23 00:12:43;;;;;;;39.43;18.20;;;1.30;99.90;;;;;;5042622;28;20503;-65
2022/11/23 00:15:11;;;;;;;33.53;17.17;;;1.30;99.90;;;;;;5044092;28;20468;-66
2022/11/23 00:17:36;;;;;;;33.17;17.47;;;1.40;99.90;;;;;;5024713;28;20415;-66
2022/11/23 00:20:02;;;;;;;41.83;18.60;;;1.40;99.90;;;;;;5043925;28;20761;-67
2022/11/23 00:22:28;;;;;;;49.73;22.23;;;1.40;99.90;;;;;;5043267;28;20298;-65
2022/11/23 00:24:53;;;;;;;35.87;18.53;;;1.30;99.90;;;;;;5043995;28;20924;-66
2022/11/23 00:27:19;;;;;;;36.00;19.20;;;1.40;99.90;;;;;;5045128;28;20556;-65
2022/11/23 00:29:44;;;;;;;40.83;19.17;;;1.40;99.90;;;;;;5042142;28;20195;-66
2022/11/23 00:32:10;;;;;;;42.07;18.80;;;1.40;99.90;;;;;;5044872;28;20204;-65
2022/11/23 00:34:36;;;;;;;40.60;17.47;;;1.40;99.90;;;;;;5041355;28;20205;-66
2022/11/23 00:37:01;;;;;;;33.03;19.00;;;1.40;99.90;;;;;;5043717;28;20542;-65
2022/11/23 00:39:27;;;;;;;39.47;17.80;;;1.40;99.90;;;;;;5043401;28;20202;-67
2022/11/23 00:41:52;;;;;;;41.43;20.40;;;1.40;99.90;;;;;;5043521;28;20291;-66
2022/11/23 00:44:18;;;;;;;37.70;17.70;;;1.30;99.90;;;;;;5043226;28;20175;-66
2022/11/23 00:46:43;;;;;;;40.53;20.83;;;1.40;99.90;;;;;;5041897;28;20580;-65
2022/11/23 00:49:09;;;;;;;35.37;18.87;;;1.40;99.90;;;;;;5043707;28;20199;-66
2022/11/23 00:51:36;;;;;;;41.23;20.00;;;1.40;99.90;;;;;;5042699;28;20257;-66
2022/11/23 00:54:04;;;;;;;33.10;18.20;;;1.40;99.90;;;;;;5043095;28;20694;-66
2022/11/23 00:56:31;;;;;;;39.53;19.07;;;1.40;99.90;;;;;;5043586;28;20452;-65
2022/11/23 00:58:58;;;;;;;45.60;19.77;;;1.40;99.90;;;;;;5040141;28;20425;-65
2022/11/23 01:01:27;;;;;;;35.87;17.27;;;1.40;99.90;;;;;;5043317;28;20910;-66
2022/11/23 01:03:56;;;;;;;33.53;17.93;;;1.40;99.90;;;;;;5040098;28;20434;-66
2022/11/23 01:06:27;;;;;;;36.50;19.20;;;1.50;99.90;;;;;;5044071;28;20405;-66
2022/11/23 01:08:56;;;;;;;37.23;18.20;;;1.50;99.90;;;;;;5039552;28;20446;-66
2022/11/23 01:11:23;;;;;;;35.60;18.37;;;1.50;99.90;;;;;;5045152;28;20416;-66
2022/11/23 01:13:49;;;;;;;47.77;21.47;;;1.50;99.90;;;;;;5039828;28;20931;-66
2022/11/23 01:16:19;;;;;;;32.63;18.27;;;1.50;99.90;;;;;;5045153;28;20428;-66
2022/11/23 01:18:44;;;;;;;35.83;19.57;;;1.50;99.90;;;;;;5040566;28;20203;-66
2022/11/23 01:21:10;;;;;;;37.57;17.10;;;1.50;99.90;;;;;;5039173;28;20409;-66
2022/11/23 01:23:36;;;;;;;43.27;18.90;;;1.50;99.90;;;;;;5044888;28;20546;-66
2022/11/23 01:26:09;;;;;;;36.77;18.40;;;1.50;99.90;;;;;;5039050;28;20199;-66
2022/11/23 01:28:37;;;;;;;29.07;17.73;;;1.50;99.90;;;;;;5045675;28;20175;-66
2022/11/23 01:31:08;;;;;;;34.73;17.27;;;1.50;99.90;;;;;;5042061;28;20460;-66
2022/11/23 01:33:34;;;;;;;36.57;19.83;;;1.50;99.90;;;;;;5041677;28;20406;-66
2022/11/23 01:36:07;;;;;;;33.53;20.50;;;1.50;99.90;;;;;;5042458;28;20410;-65
2022/11/23 01:38:32;;;;;;;33.60;20.00;;;1.50;99.90;;;;;;5042095;28;20419;-65
2022/11/23 01:40:58;;;;;;;36.70;19.40;;;1.60;99.90;;;;;;5039116;28;20403;-67
2022/11/23 01:43:23;;;;;;;34.57;17.27;;;1.60;99.90;;;;;;5044350;28;20257;-66
2022/11/23 01:45:52;;;;;;;45.77;20.40;;;1.70;99.90;;;;;;5039718;28;20183;-67
2022/11/23 01:48:24;;;;;;;37.80;20.07;;;1.70;99.90;;;;;;5044390;28;20606;-66
2022/11/23 01:50:51;;;;;;;38.93;18.67;;;1.70;99.90;;;;;;5039899;28;20406;-66
2022/11/23 01:53:17;;;;;;;35.20;18.10;;;1.70;99.90;;;;;;5045560;28;20881;-66
2022/11/23 01:55:47;;;;;;;39.97;19.80;;;1.80;99.90;;;;;;5040233;28;20463;-66
2022/11/23 01:58:17;;;;;;;31.13;19.00;;;1.80;99.90;;;;;;5038778;28;20444;-66
2022/11/23 02:00:44;;;;;;;40.43;19.43;;;1.80;99.90;;;;;;5044942;28;20433;-66
2022/11/23 02:03:10;;;;;;;42.73;19.63;;;1.90;99.90;;;;;;5038973;28;20402;-66
2022/11/23 02:05:42;;;;;;;31.10;16.77;;;1.80;99.90;;;;;;5045952;28;20419;-67
2022/11/23 02:08:08;;;;;;;36.10;17.27;;;1.90;99.90;;;;;;5038664;28;20544;-66
2022/11/23 02:10:35;;;;;;;41.80;18.70;;;1.90;99.90;;;;;;5046055;28;20457;-67
2022/11/23 02:13:06;;;;;;;33.53;20.40;;;1.90;99.90;;;;;;5039050;28;20415;-67
2022/11/23 02:15:34;;;;;;;33.53;17.70;;;2.00;99.90;;;;;;5039050;28;20450;-66
2022/11/23 02:18:02;;;;;;;40.77;21.37;;;2.00;99.90;;;;;;5039867;28;20497;-66
2022/11/23 02:20:31;;;;;;;44.43;19.97;;;2.00;99.90;;;;;;5038560;28;20470;-66
2022/11/23 02:23:03;;;;;;;34.13;17.07;;;2.00;99.90;;;;;;5035688;28;20500;-66
2022/11/23 02:25:37;;;;;;;33.47;18.87;;;2.00;99.90;;;;;;5038359;28;20497;-66
2022/11/23 02:28:03;;;;;;;40.90;21.70;;;2.10;99.90;;;;;;5031728;28;20949;-66
2022/11/23 02:30:30;;;;;;;28.70;17.53;;;2.10;99.90;;;;;;5038112;28;20472;-66
2022/11/23 02:32:55;;;;;;;36.70;19.43;;;2.20;99.90;;;;;;5038271;28;20217;-65
2022/11/23 02:35:21;;;;;;;38.33;18.50;;;2.20;99.90;;;;;;5041627;28;20477;-66
2022/11/23 02:37:47;;;;;;;40.00;19.90;;;2.10;99.90;;;;;;5041171;28;20159;-66
2022/11/23 02:40:26;;;;;;;32.30;20.53;;;2.20;99.90;;;;;;5041436;28;20324;-65
2022/11/23 02:42:51;;;;;;;34.30;17.63;;;2.20;99.90;;;;;;5022249;28;20938;-67
2022/11/23 02:45:42;;;;;;;27.37;15.97;;;2.20;99.90;;;;;;5041490;28;20413;-67
2022/11/23 02:48:07;;;;;;;37.70;18.20;;;2.10;99.90;;;;;;5036020;28;20163;-67
2022/11/23 02:50:33;;;;;;;34.87;18.00;;;2.10;99.90;;;;;;5040793;28;20434;-67
2022/11/23 02:52:59;;;;;;;34.30;17.20;;;2.10;99.90;;;;;;5041540;28;20190;-66
2022/11/23 02:55:24;;;;;;;42.87;18.20;;;2.10;99.90;;;;;;5021769;28;20259;-67
2022/11/23 02:57:50;;;;;;;37.50;16.73;;;2.10;99.90;;;;;;5037410;28;20554;-67
2022/11/23 03:00:16;;;;;;;24.20;16.00;;;2.10;99.90;;;;;;5039090;28;20194;-66
2022/11/23 03:02:42;;;;;;;34.63;17.10;;;2.10;99.90;;;;;;5039835;28;20176;-66
2022/11/23 03:05:08;;;;;;;33.63;18.00;;;2.10;99.90;;;;;;5041318;28;20409;-66
2022/11/23 03:07:34;;;;;;;30.80;16.90;;;2.10;99.90;;;;;;5037038;28;20179;-66
2022/11/23 03:10:00;;;;;;;31.63;17.47;;;2.10;99.90;;;;;;5064065;22;20483;-70
2022/11/23 03:12:25;;;;;;;37.80;18.47;;;2.00;99.90;;;;;;5049937;28;20413;-69
2022/11/23 03:14:51;;;;;;;33.07;17.17;;;2.00;99.90;;;;;;5050120;28;20453;-71
2022/11/23 03:17:17;;;;;;;28.73;17.20;;;2.00;99.90;;;;;;5050189;28;20911;-69
2022/11/23 03:19:42;;;;;;;28.03;16.87;;;2.00;99.90;;;;;;5050046;28;20297;-69
2022/11/23 03:22:08;;;;;;;42.70;19.30;;;1.90;99.90;;;;;;5043832;28;20175;-68
2022/11/23 03:24:33;;;;;;;34.77;17.20;;;1.90;99.90;;;;;;5053835;28;20174;-69
2022/11/23 03:26:59;;;;;;;38.40;18.47;;;1.90;99.90;;;;;;5053576;28;20243;-69
2022/11/23 03:29:25;;;;;;;38.60;18.87;;;1.80;99.90;;;;;;5053570;28;20783;-69
2022/11/23 03:31:54;;;;;;;47.67;18.00;;;1.80;99.90;;;;;;5053674;28;20409;-69
2022/11/23 03:34:20;;;;;;;36.47;19.60;;;1.80;99.90;;;;;;5045492;28;20664;-69
2022/11/23 03:36:45;;;;;;;24.67;15.50;;;1.70;99.90;;;;;;5039002;28;20407;-70
2022/11/23 03:39:11;;;;;;;32.90;17.10;;;1.70;99.90;;;;;;5035490;28;20281;-69
2022/11/23 03:41:37;;;;;;;32.97;18.27;;;1.70;99.90;;;;;;5052287;28;20574;-69
2022/11/23 03:44:03;;;;;;;27.47;16.47;;;1.60;99.90;;;;;;5039265;28;20167;-69
2022/11/23 03:46:29;;;;;;;38.23;20.30;;;1.70;99.90;;;;;;5053690;28;20235;-69
2022/11/23 03:48:54;;;;;;;36.80;21.77;;;1.60;99.90;;;;;;5053634;28;20409;-69
2022/11/23 03:51:20;;;;;;;42.57;20.07;;;1.60;99.90;;;;;;5048655;28;20195;-69
2022/11/23 03:53:45;;;;;;;31.50;18.67;;;1.50;99.90;;;;;;5038296;28;20195;-69
2022/11/23 03:56:11;;;;;;;35.07;19.27;;;1.50;99.90;;;;;;5053159;28;20170;-68
2022/11/23 03:58:37;;;;;;;29.93;16.03;;;1.50;99.90;;;;;;5045104;28;20174;-70
2022/11/23 04:01:03;;;;;;;27.53;15.73;;;1.50;99.90;;;;;;5044901;28;20223;-68
2022/11/23 04:03:28;;;;;;;30.00;17.40;;;1.50;99.90;;;;;;5045182;28;20167;-69
2022/11/23 04:05:54;;;;;;;27.30;16.23;;;1.50;99.90;;;;;;5053093;28;20408;-69
2022/11/23 04:08:19;;;;;;;35.70;19.33;;;1.40;99.90;;;;;;5053365;28;20604;-69
2022/11/23 04:10:45;;;;;;;41.90;18.87;;;1.50;99.90;;;;;;5046567;28;20214;-69
2022/11/23 04:13:11;;;;;;;31.63;17.00;;;1.40;99.90;;;;;;5045873;28;20649;-70
2022/11/23 04:15:36;;;;;;;34.20;18.67;;;1.40;99.90;;;;;;5054062;28;20260;-69
2022/11/23 04:18:02;;;;;;;32.93;15.67;;;1.40;99.90;;;;;;5045720;28;20250;-70
2022/11/23 04:20:28;;;;;;;28.30;15.87;;;1.40;99.90;;;;;;5053616;28;20201;-69
2022/11/23 04:22:53;;;;;;;39.93;16.73;;;1.40;99.90;;;;;;5045783;28;20204;-70
2022/11/23 04:25:19;;;;;;;33.93;17.17;;;1.40;99.90;;;;;;5046008;28;20178;-70
2022/11/23 04:27:45;;;;;;;25.10;14.80;;;1.50;99.90;;;;;;5046273;28;20194;-70
2022/11/23 04:30:11;;;;;;;36.40;18.00;;;1.40;99.90;;;;;;5053723;28;20199;-69
2022/11/23 04:32:37;;;;;;;36.23;17.50;;;1.40;99.90;;;;;;5052945;28;20409;-69
2022/11/23 04:35:03;;;;;;;26.50;15.83;;;1.40;99.90;;;;;;5052845;28;20974;-70
2022/11/23 04:37:29;;;;;;;30.27;16.67;;;1.40;99.90;;;;;;5044705;28;20180;-69
2022/11/23 04:39:55;;;;;;;34.10;18.30;;;1.40;99.90;;;;;;5044406;28;20429;-69
2022/11/23 04:42:20;;;;;;;36.60;16.30;;;1.40;99.90;;;;;;5052783;28;20510;-69
2022/11/23 04:44:46;;;;;;;29.20;17.47;;;1.40;99.90;;;;;;5044531;28;20672;-69
2022/11/23 04:47:12;;;;;;;28.67;17.03;;;1.40;99.90;;;;;;5044347;28;20181;-69
2022/11/23 04:49:38;;;;;;;31.50;17.10;;;1.40;99.90;;;;;;5042135;28;20181;-69
2022/11/23 04:52:04;;;;;;;30.23;17.50;;;1.40;99.90;;;;;;5053396;28;20170;-70
2022/11/23 04:54:29;;;;;;;25.93;16.30;;;1.30;99.90;;;;;;5048586;28;20194;-69
2022/11/23 04:56:55;;;;;;;37.17;16.27;;;1.30;99.90;;;;;;5045450;28;20414;-69
2022/11/23 04:59:21;;;;;;;32.43;17.83;;;1.40;99.90;;;;;;5056279;28;20177;-69
2022/11/23 05:01:48;;;;;;;32.57;15.00;;;1.30;99.90;;;;;;5053405;28;20712;-69
2022/11/23 05:04:14;;;;;;;34.17;16.13;;;1.40;99.90;;;;;;5052775;28;20406;-69
2022/11/23 05:06:39;;;;;;;27.90;17.03;;;1.30;99.90;;;;;;5052708;28;20425;-70
2022/11/23 05:09:05;;;;;;;29.70;15.17;;;1.40;99.90;;;;;;5052733;28;20794;-70
2022/11/23 05:11:31;;;;;;;29.43;16.40;;;1.40;99.90;;;;;;5052344;28;20353;-70
2022/11/23 05:13:56;;;;;;;31.50;15.77;;;1.40;99.90;;;;;;5052204;28;20236;-70
2022/11/23 05:16:22;;;;;;;30.37;15.27;;;1.40;99.90;;;;;;5051805;28;20167;-70
2022/11/23 05:18:47;;;;;;;33.40;16.73;;;1.40;99.90;;;;;;5055128;28;20163;-68
2022/11/23 05:21:13;;;;;;;29.10;16.30;;;1.50;99.90;;;;;;5046204;28;20200;-69
2022/11/23 05:23:38;;;;;;;34.30;19.67;;;1.50;99.90;;;;;;5042526;28;20535;-70
2022/11/23 05:26:04;;;;;;;27.90;16.27;;;1.50;99.90;;;;;;5052321;28;20171;-70
2022/11/23 05:28:30;;;;;;;35.77;18.23;;;1.60;99.90;;;;;;5025797;28;20637;-70
2022/11/23 05:30:55;;;;;;;30.17;18.20;;;1.60;99.90;;;;;;5043976;28;20190;-69
2022/11/23 05:33:21;;;;;;;31.70;17.70;;;1.60;99.90;;;;;;5045498;28;20183;-70
2022/11/23 05:35:47;;;;;;;27.47;15.90;;;1.60;99.90;;;;;;5051540;28;20300;-69
2022/11/23 05:38:13;;;;;;;28.40;16.33;;;1.70;99.90;;;;;;5045665;28;20247;-69
2022/11/23 05:40:38;;;;;;;33.93;18.27;;;1.70;99.90;;;;;;5041163;28;20183;-69
2022/11/23 05:43:04;;;;;;;38.57;19.07;;;1.60;99.90;;;;;;5044888;28;20171;-69
2022/11/23 05:45:30;;;;;;;33.70;14.37;;;1.70;99.90;;;;;;5042717;28;20182;-69
2022/11/23 05:47:57;;;;;;;36.03;16.33;;;1.70;99.90;;;;;;5048113;28;20205;-70
2022/11/23 05:50:25;;;;;;;31.63;16.63;;;1.70;99.90;;;;;;5047118;28;20224;-69
2022/11/23 05:52:50;;;;;;;31.60;16.83;;;1.70;99.90;;;;;;5048239;28;20425;-69
2022/11/23 05:55:16;;;;;;;33.20;15.00;;;1.80;99.90;;;;;;5028444;28;20461;-69
2022/11/23 05:57:42;;;;;;;31.87;16.77;;;1.80;99.90;;;;;;5051242;28;20171;-69
2022/11/23 06:00:11;;;;;;;31.20;16.17;;;1.80;99.90;;;;;;5051399;28;20458;-69
2022/11/23 06:02:37;;;;;;;34.90;16.43;;;1.90;99.90;;;;;;5042960;28;20416;-69
2022/11/23 06:05:04;;;;;;;30.57;17.67;;;1.90;99.90;;;;;;5030210;28;20418;-70
2022/11/23 06:07:31;;;;;;;29.90;16.97;;;1.90;99.90;;;;;;5041174;28;20418;-71
2022/11/23 06:09:57;;;;;;;29.33;15.87;;;2.00;99.90;;;;;;5051200;28;20449;-70
2022/11/23 06:12:23;;;;;;;26.10;14.70;;;2.00;99.90;;;;;;5051514;28;20409;-69
2022/11/23 06:14:48;;;;;;;39.00;14.90;;;1.90;99.90;;;;;;5020505;28;20251;-69
2022/11/23 06:17:14;;;;;;;34.77;17.07;;;1.90;99.90;;;;;;5050284;28;20587;-70
2022/11/23 06:19:39;;;;;;;23.30;15.23;;;1.80;99.90;;;;;;5055047;28;20171;-68
2022/11/23 06:22:05;;;;;;;26.07;16.43;;;1.80;99.90;;;;;;5045132;28;20592;-70
2022/11/23 06:24:31;;;;;;;23.20;14.20;;;1.80;99.90;;;;;;5043251;28;20236;-70
2022/11/23 06:26:56;;;;;;;31.50;15.00;;;1.70;99.90;;;;;;5042801;28;20414;-70
2022/11/23 06:29:22;;;;;;;30.60;15.07;;;1.70;99.90;;;;;;5050433;28;20530;-70
2022/11/23 06:31:47;;;;;;;26.23;14.80;;;1.60;99.90;;;;;;5042073;28;20200;-70
2022/11/23 06:34:13;;;;;;;27.13;16.90;;;1.60;99.90;;;;;;5044390;28;20201;-70
2022/11/23 06:36:39;;;;;;;29.23;15.17;;;1.60;99.90;;;;;;5046753;28;20176;-70
2022/11/23 06:39:05;;;;;;;30.47;15.17;;;1.50;99.90;;;;;;5043581;28;20972;-70
2022/11/23 06:41:30;;;;;;;29.70;17.60;;;1.50;99.90;;;;;;5050598;28;20469;-69
2022/11/23 06:43:56;;;;;;;28.37;15.20;;;1.50;99.90;;;;;;5050360;28;20171;-70
2022/11/23 06:46:21;;;;;;;29.93;16.17;;;1.50;99.90;;;;;;5050685;28;20175;-70
2022/11/23 06:48:47;;;;;;;27.50;15.40;;;1.40;99.90;;;;;;5041890;28;20179;-71
2022/11/23 06:51:14;;;;;;;23.23;15.27;;;1.40;99.90;;;;;;5022978;28;20218;-71
2022/11/23 06:53:40;;;;;;;30.20;14.17;;;1.40;99.90;;;;;;5040036;28;20425;-70
2022/11/23 06:56:07;;;;;;;28.33;16.47;;;1.40;99.90;;;;;;5038994;28;20402;-71
2022/11/23 06:58:33;;;;;;;29.17;15.10;;;1.40;99.90;;;;;;5051263;28;20417;-69
2022/11/23 07:01:04;;;;;;;32.90;14.13;;;1.50;99.90;;;;;;5042461;28;20501;-70
2022/11/23 07:03:30;;;;;;;26.93;15.57;;;1.50;99.90;;;;;;5050851;28;20425;-69
2022/11/23 07:05:56;;;;;;;35.40;16.87;;;1.50;99.90;;;;;;5045795;28;20440;-70
2022/11/23 07:08:22;;;;;;;31.83;17.10;;;1.50;99.90;;;;;;5047748;28;20542;-69
2022/11/23 07:10:47;;;;;;;27.27;14.77;;;1.50;99.90;;;;;;5045650;28;20608;-71
2022/11/23 07:13:13;;;;;;;27.43;14.40;;;1.40;99.90;;;;;;5054267;28;20416;-70
2022/11/23 07:15:40;;;;;;;32.67;15.87;;;1.70;99.90;;;;;;5054120;28;20532;-70
2022/11/23 07:18:06;;;;;;;33.03;19.30;;;1.60;99.90;;;;;;5045815;28;20755;-70
2022/11/23 07:20:32;;;;;;;27.47;15.73;;;1.50;99.90;;;;;;5054076;28;20432;-69
2022/11/23 07:22:59;;;;;;;24.37;14.43;;;1.40;99.90;;;;;;5047534;28;20410;-69
2022/11/23 07:25:25;;;;;;;25.37;17.10;;;1.50;99.90;;;;;;5045716;28;20417;-70
2022/11/23 07:27:58;;;;;;;21.30;14.03;;;1.50;99.90;;;;;;5045721;28;20773;-70
2022/11/23 07:30:28;;;;;;;22.43;15.80;;;1.50;99.90;;;;;;5054014;28;20700;-69
2022/11/23 07:32:58;;;;;;;27.37;13.47;;;1.50;99.90;;;;;;5042872;28;20908;-69
2022/11/23 07:35:24;;;;;;;31.00;15.53;;;1.80;99.90;;;;;;5051684;28;20933;-69
2022/11/23 07:37:50;;;;;;;27.63;15.07;;;1.80;99.90;;;;;;5055065;28;20516;-70
2022/11/23 07:40:15;;;;;;;23.37;15.27;;;2.00;99.90;;;;;;5046946;28;20516;-70
2022/11/23 07:42:41;;;;;;;30.90;17.17;;;1.80;99.90;;;;;;5054187;28;20167;-69
2022/11/23 07:45:08;;;;;;;36.27;17.80;;;1.80;99.90;;;;;;5040760;28;20168;-70
2022/11/23 07:47:33;;;;;;;27.50;16.70;;;2.00;99.90;;;;;;5054668;28;20182;-70
2022/11/23 07:49:59;;;;;;;39.77;17.03;;;2.20;99.90;;;;;;5025512;28;20517;-68
2022/11/23 07:52:24;;;;;;;28.93;17.53;;;2.20;99.90;;;;;;5044758;28;20175;-69
2022/11/23 07:54:50;;;;;;;26.50;15.23;;;2.20;99.90;;;;;;5055804;28;20489;-68
2022/11/23 07:57:16;;;;;;;33.00;16.50;;;2.20;99.90;;;;;;5028496;28;20199;-68
2022/11/23 07:59:41;;;;;;;29.13;15.80;;;2.20;99.90;;;;;;5054973;28;20178;-68
2022/11/23 08:02:13;;;;;;;28.00;17.43;;;2.20;99.90;;;;;;5046417;28;20715;-70
2022/11/23 08:04:38;;;;;;;27.13;15.90;;;2.30;99.90;;;;;;5054660;28;20482;-69
2022/11/23 08:07:04;;;;;;;33.27;16.57;;;2.60;99.90;;;;;;5049970;28;20416;-69
2022/11/23 08:09:30;;;;;;;30.50;16.70;;;3.10;99.90;;;;;;5056704;28;20213;-70
2022/11/23 08:11:56;;;;;;;32.33;16.90;;;3.10;99.90;;;;;;5049231;28;20409;-70
2022/11/23 08:14:22;;;;;;;27.77;16.30;;;3.00;99.90;;;;;;5044529;28;20188;-69
2022/11/23 08:16:52;;;;;;;33.90;17.03;;;3.20;99.90;;;;;;5042756;28;20206;-69
2022/11/23 08:19:17;;;;;;;21.70;14.73;;;3.10;99.90;;;;;;5047991;28;20413;-68
2022/11/23 08:21:44;;;;;;;26.53;15.03;;;3.00;99.90;;;;;;5043771;28;20429;-69
2022/11/23 08:24:10;;;;;;;23.00;14.67;;;2.90;99.90;;;;;;5041267;28;20442;-69
2022/11/23 08:26:35;;;;;;;22.83;13.53;;;2.90;99.90;;;;;;5050225;28;20425;-69
2022/11/23 08:29:01;;;;;;;24.10;13.87;;;2.80;99.90;;;;;;5048996;28;20175;-69
2022/11/23 08:31:27;;;;;;;22.77;13.47;;;2.80;99.90;;;;;;5049502;28;20198;-70
2022/11/23 08:33:52;;;;;;;24.20;13.43;;;2.90;99.90;;;;;;5049976;28;20179;-69
2022/11/23 08:36:19;;;;;;;26.37;13.57;;;2.90;99.90;;;;;;5042899;28;20172;-68
2022/11/23 08:38:44;;;;;;;23.27;13.53;;;3.00;99.90;;;;;;5041586;28;20170;-69
2022/11/23 08:41:10;;;;;;;27.43;14.57;;;3.20;99.90;;;;;;5046098;28;20459;-69
2022/11/23 08:43:36;;;;;;;25.67;14.13;;;3.50;99.90;;;;;;5044075;28;20163;-69
2022/11/23 08:46:02;;;;;;;25.03;14.50;;;3.60;99.90;;;;;;5052196;28;20171;-69
2022/11/23 08:48:28;;;;;;;24.43;13.77;;;3.60;99.90;;;;;;5053232;28;20221;-70
2022/11/23 08:50:53;;;;;;;24.57;13.70;;;3.60;99.90;;;;;;5043655;28;20421;-69
2022/11/23 08:53:19;;;;;;;30.03;12.93;;;3.70;99.90;;;;;;5052864;28;20553;-69
2022/11/23 08:55:45;;;;;;;24.20;14.47;;;3.90;99.90;;;;;;5049452;28;20621;-69
2022/11/23 08:58:11;;;;;;;25.07;13.53;;;4.10;99.90;;;;;;5045600;28;20193;-70
2022/11/23 09:00:36;;;;;;;32.17;15.00;;;4.30;99.90;;;;;;5043331;28;20430;-69
2022/11/23 09:03:03;;;;;;;21.00;13.57;;;3.90;99.90;;;;;;5045252;28;20686;-70
2022/11/23 09:05:29;;;;;;;20.93;13.50;;;4.00;99.90;;;;;;5051515;28;20505;-69
2022/11/23 09:07:58;;;;;;;24.70;13.37;;;4.00;99.90;;;;;;5044399;28;20886;-69
2022/11/23 09:10:24;;;;;;;25.60;13.67;;;4.10;99.90;;;;;;5080422;22;20461;-61
2022/11/23 09:12:49;;;;;;;21.30;13.27;;;4.40;99.90;;;;;;5045265;28;20528;-65
2022/11/23 09:15:15;;;;;;;20.33;14.07;;;4.40;99.90;;;;;;5051476;28;20202;-65
2022/11/23 09:17:41;;;;;;;31.40;16.27;;;4.40;99.90;;;;;;5050073;28;20167;-64
2022/11/23 09:20:07;;;;;;;22.57;12.63;;;4.40;99.90;;;;;;5045977;28;20174;-65
2022/11/23 09:22:33;;;;;;;18.80;12.70;;;4.30;99.90;;;;;;5040866;28;20202;-63
2022/11/23 09:24:59;;;;;;;19.40;13.20;;;4.30;99.90;;;;;;5039275;28;20421;-64
2022/11/23 09:27:25;;;;;;;22.00;15.30;;;4.20;99.90;;;;;;5042526;28;20402;-65
2022/11/23 09:29:50;;;;;;;20.30;12.77;;;4.10;99.90;;;;;;5042125;28;20258;-65
2022/11/23 09:32:16;;;;;;;26.60;13.67;;;4.10;99.90;;;;;;5030086;28;20204;-65
2022/11/23 09:34:42;;;;;;;22.57;12.90;;;4.00;99.90;;;;;;5039172;28;20195;-64
2022/11/23 09:37:08;;;;;;;22.00;13.37;;;4.00;99.90;;;;;;5041527;28;20210;-64
2022/11/23 09:39:33;;;;;;;21.83;11.23;;;4.00;99.90;;;;;;5032876;28;20416;-66
2022/11/23 09:42:23;;;;;;;20.83;13.57;;;4.00;99.90;;;;;;5043790;28;20215;-64
2022/11/23 09:45:10;;;;;;;30.20;12.77;;;4.10;99.90;;;;;;5039098;28;20180;-65
2022/11/23 09:47:41;;;;;;;21.37;13.27;;;4.20;99.90;;;;;;5040431;28;20406;-63
2022/11/23 09:50:08;;;;;;;20.37;14.33;;;4.20;99.90;;;;;;5042779;28;20409;-64
2022/11/23 09:52:36;;;;;;;24.60;14.17;;;4.10;99.90;;;;;;5039367;28;21018;-64
2022/11/23 09:55:30;;;;;;;24.70;12.73;;;4.20;99.90;;;;;;5038032;28;20459;-64
2022/11/23 09:58:00;;;;;;;23.23;13.17;;;4.20;99.90;;;;;;5022265;28;20429;-64
2022/11/23 10:00:29;;;;;;;20.87;12.37;;;4.30;99.90;;;;;;5032512;28;20443;-64
2022/11/23 10:02:54;;;;;;;17.60;12.80;;;4.30;99.90;;;;;;5034512;28;20436;-64
2022/11/23 10:05:24;;;;;;;18.03;13.37;;;4.30;99.90;;;;;;5042588;28;20790;-63
2022/11/23 10:07:58;;;;;;;21.37;13.40;;;4.40;99.90;;;;;;5038196;28;20661;-63
2022/11/23 10:10:52;;;;;;;22.60;13.60;;;4.30;99.90;;;;;;5032906;28;20425;-63
2022/11/23 10:13:55;;;;;;;22.27;13.53;;;4.40;99.90;;;;;;5026523;28;20418;-65
2022/11/23 10:16:26;;;;;;;24.03;14.27;;;4.50;99.90;;;;;;4987411;28;20450;-63
2022/11/23 10:19:26;;;;;;;20.77;10.83;;;4.40;99.90;;;;;;5033671;28;20828;-64
2022/11/23 10:22:00;;;;;;;20.87;13.67;;;4.40;99.90;;;;;;5017134;28;20457;-63
2022/11/23 10:24:33;;;;;;;20.20;12.30;;;4.40;99.90;;;;;;5021008;28;20901;-64
2022/11/23 10:27:00;;;;;;;23.73;13.30;;;4.50;99.90;;;;;;5032015;28;20417;-64
2022/11/23 10:29:35;;;;;;;24.00;14.37;;;4.50;99.90;;;;;;5036530;28;20412;-65
2022/11/23 10:32:01;;;;;;;23.80;11.77;;;4.60;99.90;;;;;;5038783;28;20451;-64
2022/11/23 10:34:55;;;;;;;20.07;12.87;;;4.70;99.90;;;;;;5047680;28;20552;-64
2022/11/23 10:37:21;;;;;;;16.53;11.50;;;4.70;99.90;;;;;;5021338;28;20870;-66
2022/11/23 10:39:46;;;;;;;27.13;12.13;;;4.80;99.90;;;;;;5048312;28;20421;-66
2022/11/23 10:42:24;;;;;;;23.70;14.33;;;4.90;99.90;;;;;;5033360;28;20206;-64
2022/11/23 10:44:51;;;;;;;19.20;10.70;;;5.00;99.90;;;;;;5048629;28;20176;-64
2022/11/23 10:47:48;;;;;;;18.00;10.60;;;5.10;99.90;;;;;;5039721;28;20421;-64
2022/11/23 10:50:28;;;;;;;14.67;12.47;;;5.10;99.90;;;;;;5029258;28;20421;-64
2022/11/23 10:53:27;;;;;;;21.30;11.73;;;5.20;99.90;;;;;;5041661;28;20479;-64
2022/11/23 10:55:58;;;;;;;16.93;11.13;;;5.20;99.90;;;;;;5029760;28;20868;-64
2022/11/23 10:58:33;;;;;;;26.10;12.93;;;5.20;99.90;;;;;;5047481;28;20567;-64
2022/11/23 11:01:22;;;;;;;19.30;11.70;;;5.30;99.90;;;;;;5036666;28;20890;-64
2022/11/23 11:03:48;;;;;;;19.30;12.07;;;5.50;99.90;;;;;;5040405;28;20417;-64
2022/11/23 11:06:26;;;;;;;25.93;13.60;;;5.50;99.90;;;;;;5037313;28;20434;-64
2022/11/23 11:08:54;;;;;;;19.10;11.30;;;5.60;99.90;;;;;;5048875;28;20939;-64
2022/11/23 11:11:33;;;;;;;25.90;13.10;;;5.70;99.90;;;;;;5038174;28;20539;-64
2022/11/23 11:14:05;;;;;;;25.23;12.47;;;5.80;99.90;;;;;;5030516;28;20427;-66
2022/11/23 11:16:34;;;;;;;19.33;12.40;;;5.90;99.90;;;;;;5037102;28;20436;-64
2022/11/23 11:19:26;;;;;;;19.30;11.30;;;6.00;99.90;;;;;;5034836;28;20786;-64
2022/11/23 11:21:52;;;;;;;27.10;13.93;;;6.10;99.90;;;;;;5045230;28;20460;-64
2022/11/23 11:24:22;;;;;;;21.90;12.73;;;6.20;99.90;;;;;;5038241;28;20453;-63
2022/11/23 11:26:58;;;;;;;17.47;10.63;;;6.30;99.90;;;;;;5040675;28;20754;-64
2022/11/23 11:29:42;;;;;;;18.93;11.47;;;6.40;99.90;;;;;;5037373;28;20509;-64
2022/11/23 11:32:22;;;;;;;21.70;13.20;;;6.40;99.90;;;;;;5030633;28;20447;-65
2022/11/23 11:35:02;;;;;;;16.93;12.53;;;6.50;99.90;;;;;;5041053;28;20454;-65
2022/11/23 11:37:35;;;;;;;16.37;11.57;;;6.60;99.90;;;;;;5041709;28;20416;-65
2022/11/23 11:40:07;;;;;;;21.03;13.00;;;6.80;99.90;;;;;;5022770;28;20521;-64
2022/11/23 11:42:39;;;;;;;17.57;11.77;;;7.00;99.90;;;;;;5034938;28;20488;-64
2022/11/23 11:45:12;;;;;;;21.77;12.20;;;6.90;99.90;;;;;;5047209;28;20418;-64
2022/11/23 11:47:44;;;;;;;17.17;11.03;;;7.10;99.90;;;;;;5042801;28;20425;-64
2022/11/23 11:50:24;;;;;;;18.33;11.53;;;7.20;99.90;;;;;;5030913;28;20847;-65
2022/11/23 11:52:55;;;;;;;14.13;10.80;;;7.20;99.90;;;;;;5041880;28;20403;-63
2022/11/23 11:55:27;;;;;;;14.33;8.97;;;7.20;99.90;;;;;;5034717;28;20453;-64
2022/11/23 11:58:15;;;;;;;15.10;9.30;;;7.20;99.90;;;;;;5041972;28;20506;-63
2022/11/23 12:00:41;;;;;;;15.97;9.97;;;7.10;99.90;;;;;;5042613;28;20453;-65
2022/11/23 12:03:37;;;;;;;19.00;11.50;;;7.10;99.90;;;;;;5044057;28;20414;-65
2022/11/23 12:06:09;;;;;;;19.77;11.83;;;7.30;99.90;;;;;;5028272;28;20458;-64
2022/11/23 12:08:46;;;;;;;15.53;10.27;;;7.30;99.90;;;;;;5042260;28;20402;-65
2022/11/23 12:11:12;;;;;;;18.90;11.03;;;7.40;99.90;;;;;;5037608;28;20445;-65
2022/11/23 12:13:42;;;;;;;17.93;9.97;;;7.40;99.90;;;;;;5034759;28;20415;-65
2022/11/23 12:16:21;;;;;;;18.70;10.53;;;7.30;99.90;;;;;;5043920;28;20430;-65
2022/11/23 12:19:13;;;;;;;19.80;9.47;;;7.30;99.90;;;;;;5040750;28;20907;-64
2022/11/23 12:21:39;;;;;;;17.47;9.50;;;7.40;99.90;;;;;;5040226;28;20422;-65
2022/11/23 12:24:04;;;;;;;18.53;10.80;;;7.30;99.90;;;;;;5044868;28;20401;-65
2022/11/23 12:26:51;;;;;;;13.40;10.50;;;7.30;99.90;;;;;;5035671;28;20663;-65
2022/11/23 12:29:40;;;;;;;14.40;9.47;;;7.30;99.90;;;;;;5038039;28;20175;-64
2022/11/23 12:32:23;;;;;;;16.20;11.30;;;7.40;99.90;;;;;;5028990;28;20841;-65
2022/11/23 12:35:23;;;;;;;20.43;11.97;;;7.40;99.90;;;;;;5039998;28;20450;-65
2022/11/23 12:38:12;;;;;;;13.40;9.77;;;7.40;99.90;;;;;;5040088;28;20417;-65
2022/11/23 12:40:55;;;;;;;20.23;11.90;;;7.40;99.90;;;;;;5024665;28;20510;-65
2022/11/23 12:43:59;;;;;;;20.47;12.60;;;7.50;99.90;;;;;;5038433;28;20505;-65
2022/11/23 12:46:42;;;;;;;15.97;10.03;;;7.40;99.90;;;;;;5034340;28;20785;-64